Time;durP1;ratioP1;P1;durP2;ratioP2;P2;SDS_P1;SDS_P2;PMS_P1;PMS_P2;Temp;Humidity;BMP_temperature;BMP_pressure;BME280_temperature;BME280_humidity;BME280_pressure;Samples;Min_cycle;Max_cycle;Signal;HPM_P1;HPM_P2
2023/09/21 00:00:13;;;;;;;7.50;2.45;;;;;;;;;;4987227;28;20042;-71
2023/09/21 00:02:49;;;;;;;3.85;2.22;;;;;;;;;;4997263;28;20047;-71
2023/09/21 00:05:17;;;;;;;4.75;2.10;;;;;;;;;;4994000;28;20052;-70
2023/09/21 00:07:43;;;;;;;3.83;2.08;;;;;;;;;;4992514;28;20049;-70
2023/09/21 00:10:10;;;;;;;6.05;2.20;;;;;;;;;;4993798;28;20452;-70
2023/09/21 00:12:36;;;;;;;4.53;2.20;;;;;;;;;;4991637;28;20077;-70
2023/09/21 00:15:07;;;;;;;3.25;1.77;;;;;;;;;;4988732;28;20579;-70
2023/09/21 00:17:39;;;;;;;5.65;2.22;;;;;;;;;;4987572;28;20443;-70
2023/09/21 00:20:23;;;;;;;3.60;2.05;;;;;;;;;;4997042;28;20514;-70
2023/09/21 00:22:59;;;;;;;5.75;2.20;;;;;;;;;;4991023;28;20423;-70
2023/09/21 00:25:30;;;;;;;2.75;1.90;;;;;;;;;;4990288;28;20523;-70
2023/09/21 00:27:56;;;;;;;4.82;2.15;;;;;;;;;;4992866;28;20034;-70
2023/09/21 00:30:22;;;;;;;4.82;2.00;;;;;;;;;;4987065;28;20534;-70
2023/09/21 00:32:48;;;;;;;5.07;2.40;;;;;;;;;;4993111;28;20046;-69
2023/09/21 00:35:16;;;;;;;3.40;2.20;;;;;;;;;;4994569;28;20093;-69
2023/09/21 00:37:42;;;;;;;6.47;2.15;;;;;;;;;;4993298;28;20053;-69
2023/09/21 00:40:14;;;;;;;2.92;2.15;;;;;;;;;;4987796;28;20040;-69
2023/09/21 00:42:40;;;;;;;4.20;2.47;;;;;;;;;;4999102;28;20049;-69
2023/09/21 00:45:08;;;;;;;5.35;2.40;;;;;;;;;;4994035;28;20034;-70
2023/09/21 00:47:34;;;;;;;5.07;2.53;;;;;;;;;;4993990;28;20487;-70
2023/09/21 00:50:06;;;;;;;5.35;2.55;;;;;;;;;;4993905;28;20078;-70
2023/09/21 00:52:32;;;;;;;4.38;2.03;;;;;;;;;;4992369;28;20475;-70
2023/09/21 00:54:58;;;;;;;5.35;2.25;;;;;;;;;;4993903;28;20066;-70
2023/09/21 00:57:25;;;;;;;7.88;2.35;;;;;;;;;;4993321;28;20034;-70
2023/09/21 00:59:52;;;;;;;3.80;2.20;;;;;;;;;;4988152;28;20046;-70
2023/09/21 01:02:18;;;;;;;3.95;2.42;;;;;;;;;;4989758;28;20046;-70
2023/09/21 01:04:44;;;;;;;6.30;2.42;;;;;;;;;;4984498;28;20046;-70
2023/09/21 01:07:17;;;;;;;6.60;2.60;;;;;;;;;;4993041;28;20046;-71
2023/09/21 01:09:45;;;;;;;5.40;2.90;;;;;;;;;;4993806;28;20046;-71
2023/09/21 01:12:13;;;;;;;4.53;2.42;;;;;;;;;;4992930;28;20404;-71
2023/09/21 01:14:39;;;;;;;4.78;2.20;;;;;;;;;;4991204;28;20097;-70
2023/09/21 01:17:05;;;;;;;5.13;2.22;;;;;;;;;;4989681;28;20038;-70
2023/09/21 01:19:31;;;;;;;5.57;2.47;;;;;;;;;;4987791;28;20049;-70
2023/09/21 01:21:59;;;;;;;4.20;2.40;;;;;;;;;;4993349;28;20044;-70
2023/09/21 01:24:27;;;;;;;6.20;2.30;;;;;;;;;;4986765;28;20125;-70
2023/09/21 01:26:53;;;;;;;6.18;2.47;;;;;;;;;;4992834;28;20080;-70
2023/09/21 01:29:19;;;;;;;8.40;2.33;;;;;;;;;;4993151;28;20046;-70
2023/09/21 01:31:45;;;;;;;3.10;2.20;;;;;;;;;;4993259;28;20046;-70
2023/09/21 01:34:11;;;;;;;3.17;2.17;;;;;;;;;;4999281;28;20528;-70
2023/09/21 01:36:37;;;;;;;3.25;1.98;;;;;;;;;;4986294;28;20461;-70
2023/09/21 01:39:09;;;;;;;7.47;2.33;;;;;;;;;;4997227;28;20072;-70
2023/09/21 01:41:35;;;;;;;4.03;2.42;;;;;;;;;;4995648;28;20080;-70
2023/09/21 01:44:01;;;;;;;4.72;2.25;;;;;;;;;;4993357;28;20042;-70
2023/09/21 01:46:27;;;;;;;4.68;2.47;;;;;;;;;;4992438;28;20096;-70
2023/09/21 01:48:54;;;;;;;3.55;2.30;;;;;;;;;;4992313;28;20049;-70
2023/09/21 01:51:20;;;;;;;4.60;2.42;;;;;;;;;;4990733;28;20476;-70
2023/09/21 01:53:47;;;;;;;7.07;2.50;;;;;;;;;;4993155;28;20488;-70
2023/09/21 01:56:14;;;;;;;4.90;2.33;;;;;;;;;;4991019;28;20444;-70
2023/09/21 01:58:40;;;;;;;3.60;2.17;;;;;;;;;;4985098;28;20043;-70
2023/09/21 02:01:06;;;;;;;4.10;2.33;;;;;;;;;;4986594;28;20038;-70
2023/09/21 02:03:32;;;;;;;3.85;2.10;;;;;;;;;;4988066;28;20428;-70
2023/09/21 02:06:02;;;;;;;2.90;2.03;;;;;;;;;;4985111;28;20165;-70
2023/09/21 02:08:28;;;;;;;4.50;2.03;;;;;;;;;;4980903;28;20508;-70
2023/09/21 02:10:54;;;;;;;4.07;1.80;;;;;;;;;;4982406;28;20046;-70
2023/09/21 02:13:20;;;;;;;2.80;1.60;;;;;;;;;;4987242;28;20075;-70
2023/09/21 02:15:51;;;;;;;2.65;1.88;;;;;;;;;;5013675;23;20685;-67
2023/09/21 02:18:17;;;;;;;3.42;1.67;;;;;;;;;;5014597;28;20489;-69
2023/09/21 02:20:44;;;;;;;3.45;1.80;;;;;;;;;;4993034;28;20053;-69
2023/09/21 02:23:10;;;;;;;4.10;1.98;;;;;;;;;;5004245;28;20045;-69
2023/09/21 02:25:40;;;;;;;4.43;1.92;;;;;;;;;;5011450;28;20053;-69
2023/09/21 02:28:10;;;;;;;4.63;1.48;;;;;;;;;;4999045;28;20114;-69
2023/09/21 02:30:37;;;;;;;3.45;1.70;;;;;;;;;;5000515;28;20042;-69
2023/09/21 02:33:05;;;;;;;2.83;1.80;;;;;;;;;;5007339;28;20039;-69
2023/09/21 02:35:33;;;;;;;5.07;2.03;;;;;;;;;;5001123;28;20050;-69
2023/09/21 02:37:59;;;;;;;3.67;1.90;;;;;;;;;;5007055;28;20045;-69
2023/09/21 02:40:25;;;;;;;3.60;1.75;;;;;;;;;;4992689;28;20093;-69
2023/09/21 02:42:52;;;;;;;4.35;1.60;;;;;;;;;;4992939;28;20431;-69
2023/09/21 02:45:19;;;;;;;2.20;1.60;;;;;;;;;;5008292;28;20080;-69
2023/09/21 02:47:46;;;;;;;4.43;2.05;;;;;;;;;;5009797;28;20516;-69
2023/09/21 02:50:17;;;;;;;3.47;1.90;;;;;;;;;;5004717;28;20038;-69
2023/09/21 02:52:47;;;;;;;3.90;1.67;;;;;;;;;;5012192;28;20116;-69
2023/09/21 02:55:16;;;;;;;2.85;1.80;;;;;;;;;;5009314;28;20077;-69
2023/09/21 02:57:43;;;;;;;3.63;1.70;;;;;;;;;;4999917;28;20122;-69
2023/09/21 03:00:21;;;;;;;2.97;1.50;;;;;;;;;;4996846;28;20038;-69
2023/09/21 03:02:47;;;;;;;3.90;1.55;;;;;;;;;;5010581;28;20064;-69
2023/09/21 03:05:16;;;;;;;3.78;1.77;;;;;;;;;;5011778;28;20121;-69
2023/09/21 03:07:43;;;;;;;2.60;1.70;;;;;;;;;;5010704;28;20042;-70
2023/09/21 03:10:10;;;;;;;2.50;1.90;;;;;;;;;;5006527;28;20117;-70
2023/09/21 03:12:39;;;;;;;2.58;1.60;;;;;;;;;;4998739;28;20484;-70
2023/09/21 03:15:13;;;;;;;2.92;1.55;;;;;;;;;;5011666;28;20038;-70
2023/09/21 03:17:40;;;;;;;11.52;1.90;;;;;;;;;;5007760;28;20038;-70
2023/09/21 03:20:25;;;;;;;4.65;2.00;;;;;;;;;;4995093;28;20030;-70
2023/09/21 03:22:55;;;;;;;2.95;1.73;;;;;;;;;;5011732;28;20404;-70
2023/09/21 03:25:29;;;;;;;4.10;1.88;;;;;;;;;;5009319;28;20451;-70
2023/09/21 03:27:56;;;;;;;5.20;2.00;;;;;;;;;;5007617;28;20042;-69
2023/09/21 03:30:26;;;;;;;2.95;1.83;;;;;;;;;;5000367;28;20097;-69
2023/09/21 03:32:52;;;;;;;7.97;2.00;;;;;;;;;;4992309;28;20047;-69
2023/09/21 03:35:19;;;;;;;4.75;2.00;;;;;;;;;;5000502;28;20112;-69
2023/09/21 03:37:47;;;;;;;3.28;1.80;;;;;;;;;;5005885;28;20542;-69
2023/09/21 03:40:13;;;;;;;3.22;1.75;;;;;;;;;;4992043;28;20121;-69
2023/09/21 03:42:41;;;;;;;2.83;1.80;;;;;;;;;;5007359;28;20046;-70
2023/09/21 03:45:07;;;;;;;2.88;1.67;;;;;;;;;;5014621;28;20049;-70
2023/09/21 03:47:33;;;;;;;3.28;1.90;;;;;;;;;;5002971;28;20041;-70
2023/09/21 03:50:00;;;;;;;2.88;1.55;;;;;;;;;;5001726;28;20092;-70
2023/09/21 03:52:27;;;;;;;2.85;1.85;;;;;;;;;;5013844;28;20046;-69
2023/09/21 03:54:54;;;;;;;4.70;2.30;;;;;;;;;;5014124;28;20057;-69
2023/09/21 03:57:20;;;;;;;2.85;1.63;;;;;;;;;;5013443;28;20056;-69
2023/09/21 03:59:46;;;;;;;5.43;1.88;;;;;;;;;;5002807;28;20038;-69
2023/09/21 04:02:17;;;;;;;2.45;1.80;;;;;;;;;;5009268;28;20519;-69
2023/09/21 04:04:44;;;;;;;3.55;1.70;;;;;;;;;;5008497;28;20045;-69
2023/09/21 04:07:15;;;;;;;4.00;1.83;;;;;;;;;;5005925;28;20575;-69
2023/09/21 04:09:41;;;;;;;3.08;1.80;;;;;;;;;;5005116;28;20058;-69
2023/09/21 04:12:07;;;;;;;2.72;1.80;;;;;;;;;;5011112;28;20045;-70
2023/09/21 04:14:33;;;;;;;4.88;1.92;;;;;;;;;;5014596;28;20121;-70
2023/09/21 04:16:59;;;;;;;6.28;1.90;;;;;;;;;;5005754;28;20034;-70
2023/09/21 04:19:25;;;;;;;2.78;1.90;;;;;;;;;;5010206;28;20041;-70
2023/09/21 04:21:51;;;;;;;4.28;2.13;;;;;;;;;;5009036;28;20049;-70
2023/09/21 04:24:18;;;;;;;4.13;2.03;;;;;;;;;;5011095;28;20052;-70
2023/09/21 04:26:43;;;;;;;5.43;1.85;;;;;;;;;;5011312;28;20411;-70
2023/09/21 04:29:10;;;;;;;3.85;1.85;;;;;;;;;;5009888;28;20038;-70
2023/09/21 04:31:36;;;;;;;4.25;2.00;;;;;;;;;;5008254;28;20049;-69
2023/09/21 04:34:03;;;;;;;3.67;1.88;;;;;;;;;;5011973;28;20034;-69
2023/09/21 04:36:29;;;;;;;3.90;1.80;;;;;;;;;;5005890;28;20038;-69
2023/09/21 04:38:55;;;;;;;3.97;1.90;;;;;;;;;;5011953;28;20133;-69
2023/09/21 04:41:21;;;;;;;3.25;1.70;;;;;;;;;;4999854;28;20121;-69
2023/09/21 04:43:48;;;;;;;5.75;2.08;;;;;;;;;;5011218;28;20069;-69
2023/09/21 04:46:16;;;;;;;3.72;2.15;;;;;;;;;;5004573;28;20038;-70
2023/09/21 04:48:42;;;;;;;4.88;2.00;;;;;;;;;;5007348;28;20128;-70
2023/09/21 04:51:14;;;;;;;3.67;1.90;;;;;;;;;;5009232;28;20145;-69
2023/09/21 04:53:40;;;;;;;4.45;1.60;;;;;;;;;;5008129;28;20054;-70
2023/09/21 04:56:06;;;;;;;6.10;2.00;;;;;;;;;;5011806;28;20040;-69
2023/09/21 04:58:31;;;;;;;1.92;1.42;;;;;;;;;;5011825;28;20042;-69
2023/09/21 05:00:57;;;;;;;4.53;1.92;;;;;;;;;;5002304;28;20050;-69
2023/09/21 05:03:24;;;;;;;3.75;2.03;;;;;;;;;;5011979;28;20498;-69
2023/09/21 05:05:52;;;;;;;2.55;1.90;;;;;;;;;;5012105;28;20045;-69
2023/09/21 05:08:18;;;;;;;3.92;1.80;;;;;;;;;;5004989;28;20038;-69
2023/09/21 05:10:44;;;;;;;3.15;1.77;;;;;;;;;;5006483;28;20038;-69
2023/09/21 05:13:10;;;;;;;3.72;1.73;;;;;;;;;;5008527;28;20043;-70
2023/09/21 05:15:36;;;;;;;3.80;2.10;;;;;;;;;;5007760;28;20069;-70
2023/09/21 05:18:02;;;;;;;3.38;1.92;;;;;;;;;;5012948;28;20483;-70
2023/09/21 05:20:29;;;;;;;3.67;1.75;;;;;;;;;;5010082;28;20087;-70
2023/09/21 05:22:55;;;;;;;3.97;1.73;;;;;;;;;;5001909;28;20050;-70
2023/09/21 05:25:21;;;;;;;3.85;1.83;;;;;;;;;;5011501;28;20421;-70
2023/09/21 05:27:47;;;;;;;4.00;1.88;;;;;;;;;;5017187;28;20041;-70
2023/09/21 05:30:15;;;;;;;2.65;1.80;;;;;;;;;;5011493;28;20404;-70
2023/09/21 05:32:40;;;;;;;4.50;1.95;;;;;;;;;;5003364;28;20056;-70
2023/09/21 05:35:07;;;;;;;6.20;2.30;;;;;;;;;;5003640;28;20047;-70
2023/09/21 05:37:36;;;;;;;4.25;1.83;;;;;;;;;;5010381;28;20121;-70
2023/09/21 05:40:06;;;;;;;3.20;1.83;;;;;;;;;;5012447;28;20030;-70
2023/09/21 05:42:32;;;;;;;3.72;1.90;;;;;;;;;;5001237;28;20085;-70
2023/09/21 05:44:58;;;;;;;4.30;1.75;;;;;;;;;;5008018;28;20408;-70
2023/09/21 05:47:25;;;;;;;5.22;1.80;;;;;;;;;;4990436;28;20049;-70
2023/09/21 05:49:51;;;;;;;3.22;1.50;;;;;;;;;;5011246;28;20096;-70
2023/09/21 05:52:18;;;;;;;2.63;1.80;;;;;;;;;;5004322;28;20038;-70
2023/09/21 05:54:45;;;;;;;4.10;1.90;;;;;;;;;;5010235;28;20456;-70
2023/09/21 05:57:12;;;;;;;3.78;1.58;;;;;;;;;;5015887;28;20046;-70
2023/09/21 05:59:38;;;;;;;3.63;2.40;;;;;;;;;;5006007;28;20050;-70
2023/09/21 06:02:05;;;;;;;2.55;1.90;;;;;;;;;;5002706;28;20117;-70
2023/09/21 06:04:34;;;;;;;4.45;2.50;;;;;;;;;;5009846;28;20411;-70
2023/09/21 06:07:00;;;;;;;4.32;1.60;;;;;;;;;;5011379;28;20038;-70
2023/09/21 06:09:26;;;;;;;4.03;1.85;;;;;;;;;;5009310;28;20062;-69
2023/09/21 06:11:52;;;;;;;3.28;1.98;;;;;;;;;;5007074;28;20034;-70
2023/09/21 06:14:19;;;;;;;4.18;2.15;;;;;;;;;;5002924;28;20038;-70
2023/09/21 06:16:45;;;;;;;3.33;1.77;;;;;;;;;;5006723;28;20042;-70
2023/09/21 06:19:12;;;;;;;3.97;1.88;;;;;;;;;;4999225;28;20038;-70
2023/09/21 06:21:41;;;;;;;2.50;1.70;;;;;;;;;;4996203;28;20050;-70
2023/09/21 06:24:07;;;;;;;4.80;1.80;;;;;;;;;;5004047;28;20041;-69
2023/09/21 06:26:34;;;;;;;4.22;2.00;;;;;;;;;;5001746;28;20060;-70
2023/09/21 06:29:00;;;;;;;4.57;2.00;;;;;;;;;;5008633;28;20404;-69
2023/09/21 06:31:26;;;;;;;6.53;2.72;;;;;;;;;;5010133;28;20052;-70
2023/09/21 06:33:57;;;;;;;3.10;1.70;;;;;;;;;;5001109;28;20065;-70
2023/09/21 06:36:24;;;;;;;4.03;1.70;;;;;;;;;;5007008;28;20073;-70
2023/09/21 06:38:51;;;;;;;2.67;1.55;;;;;;;;;;5012047;28;20069;-70
2023/09/21 06:41:17;;;;;;;5.70;1.95;;;;;;;;;;5006512;28;20115;-70
2023/09/21 06:43:44;;;;;;;3.92;2.45;;;;;;;;;;4997795;28;20073;-70
2023/09/21 06:46:10;;;;;;;3.90;1.90;;;;;;;;;;4997223;28;20053;-70
2023/09/21 06:48:36;;;;;;;2.97;1.95;;;;;;;;;;5003899;28;20042;-70
2023/09/21 06:51:07;;;;;;;3.58;2.15;;;;;;;;;;5008575;28;20049;-70
2023/09/21 06:53:34;;;;;;;3.85;1.90;;;;;;;;;;4992103;28;20042;-70
2023/09/21 06:56:00;;;;;;;4.45;2.00;;;;;;;;;;4993305;28;20085;-70
2023/09/21 06:58:26;;;;;;;5.82;1.98;;;;;;;;;;5010472;28;20045;-70
2023/09/21 07:00:52;;;;;;;3.63;2.10;;;;;;;;;;5006919;28;20504;-70
2023/09/21 07:03:19;;;;;;;3.00;1.80;;;;;;;;;;4996618;28;20039;-70
2023/09/21 07:05:48;;;;;;;3.05;1.98;;;;;;;;;;5009489;28;20048;-70
2023/09/21 07:08:15;;;;;;;5.80;2.30;;;;;;;;;;5004757;28;20089;-69
2023/09/21 07:10:41;;;;;;;5.18;2.10;;;;;;;;;;5009276;28;20037;-70
2023/09/21 07:13:08;;;;;;;3.88;2.03;;;;;;;;;;5007280;28;20369;-70
2023/09/21 07:15:37;;;;;;;4.88;2.05;;;;;;;;;;5009463;28;20066;-70
2023/09/21 07:18:05;;;;;;;4.20;2.15;;;;;;;;;;5011155;28;20042;-70
2023/09/21 07:20:31;;;;;;;4.00;2.00;;;;;;;;;;5004072;28;20050;-70
2023/09/21 07:22:57;;;;;;;3.72;2.10;;;;;;;;;;5012794;28;20069;-70
2023/09/21 07:25:25;;;;;;;3.78;2.03;;;;;;;;;;5008917;28;20377;-70
2023/09/21 07:27:54;;;;;;;2.92;1.70;;;;;;;;;;5012318;28;20054;-70
2023/09/21 07:30:20;;;;;;;5.00;2.15;;;;;;;;;;5010149;28;20472;-70
2023/09/21 07:32:46;;;;;;;3.45;2.03;;;;;;;;;;5002737;28;20125;-70
2023/09/21 07:35:14;;;;;;;3.55;1.98;;;;;;;;;;5003483;28;20088;-70
2023/09/21 07:37:45;;;;;;;5.25;2.00;;;;;;;;;;5013391;28;20052;-70
2023/09/21 07:40:12;;;;;;;4.53;2.17;;;;;;;;;;5002850;28;20427;-70
2023/09/21 07:42:42;;;;;;;4.35;2.03;;;;;;;;;;5011801;28;20156;-70
2023/09/21 07:45:08;;;;;;;3.80;1.98;;;;;;;;;;5008897;28;20046;-70
2023/09/21 07:47:34;;;;;;;3.65;1.88;;;;;;;;;;5001414;28;20046;-70
2023/09/21 07:50:00;;;;;;;2.55;1.80;;;;;;;;;;5003794;28;20061;-70
2023/09/21 07:52:28;;;;;;;3.58;2.58;;;;;;;;;;5005779;28;20052;-71
2023/09/21 07:54:54;;;;;;;4.10;2.00;;;;;;;;;;5003367;28;20077;-69
2023/09/21 07:57:20;;;;;;;4.88;1.90;;;;;;;;;;5014182;28;20053;-69
2023/09/21 07:59:46;;;;;;;4.30;2.55;;;;;;;;;;5009295;28;20042;-69
2023/09/21 08:02:12;;;;;;;4.13;2.08;;;;;;;;;;5005538;28;20050;-69
2023/09/21 08:04:38;;;;;;;4.10;2.10;;;;;;;;;;5004416;28;20459;-70
2023/09/21 08:07:05;;;;;;;4.07;2.17;;;;;;;;;;5009160;28;20044;-70
2023/09/21 08:09:31;;;;;;;4.82;1.95;;;;;;;;;;4994639;28;20061;-70
2023/09/21 08:11:57;;;;;;;2.83;1.90;;;;;;;;;;5009619;28;20052;-70
2023/09/21 08:14:25;;;;;;;4.30;2.25;;;;;;;;;;5011315;28;20072;-70
2023/09/21 08:16:54;;;;;;;5.03;1.95;;;;;;;;;;5008782;23;20130;-70
2023/09/21 08:19:21;;;;;;;3.85;2.00;;;;;;;;;;4992792;28;20443;-70
2023/09/21 08:21:47;;;;;;;4.35;2.17;;;;;;;;;;4989053;28;20050;-70
2023/09/21 08:24:13;;;;;;;4.38;2.15;;;;;;;;;;4991474;28;20038;-69
2023/09/21 08:26:40;;;;;;;4.85;2.47;;;;;;;;;;4991228;28;20088;-69
2023/09/21 08:29:06;;;;;;;4.07;2.30;;;;;;;;;;4983700;28;20043;-69
2023/09/21 08:31:32;;;;;;;4.43;2.10;;;;;;;;;;4986065;28;20070;-69
2023/09/21 08:33:59;;;;;;;5.20;2.65;;;;;;;;;;4994518;28;20042;-69
2023/09/21 08:36:25;;;;;;;4.13;2.20;;;;;;;;;;4993805;28;20077;-70
2023/09/21 08:38:53;;;;;;;4.53;2.50;;;;;;;;;;4988855;28;20092;-70
2023/09/21 08:41:19;;;;;;;5.25;2.42;;;;;;;;;;4989831;28;20039;-70
2023/09/21 08:43:45;;;;;;;7.28;2.80;;;;;;;;;;4993218;28;20208;-69
2023/09/21 08:46:13;;;;;;;4.45;2.55;;;;;;;;;;4989052;28;20051;-69
2023/09/21 08:48:40;;;;;;;5.55;2.80;;;;;;;;;;4991066;28;20089;-69
2023/09/21 08:51:09;;;;;;;3.58;2.53;;;;;;;;;;4984389;28;20038;-69
2023/09/21 08:53:36;;;;;;;6.93;3.00;;;;;;;;;;4991264;28;20096;-69
2023/09/21 08:56:02;;;;;;;4.88;2.53;;;;;;;;;;4989018;28;20077;-69
2023/09/21 08:58:34;;;;;;;4.10;2.42;;;;;;;;;;4993154;28;20065;-69
2023/09/21 09:01:00;;;;;;;6.15;2.88;;;;;;;;;;4993238;28;20038;-69
2023/09/21 09:03:26;;;;;;;4.15;3.10;;;;;;;;;;4992263;28;20041;-71
2023/09/21 09:05:55;;;;;;;3.50;2.78;;;;;;;;;;4990869;28;20038;-71
2023/09/21 09:08:21;;;;;;;4.85;2.67;;;;;;;;;;4980021;28;20165;-70
2023/09/21 09:10:47;;;;;;;6.28;2.92;;;;;;;;;;4992991;28;20511;-70
2023/09/21 09:13:13;;;;;;;4.90;3.10;;;;;;;;;;4990378;28;20035;-70
2023/09/21 09:15:41;;;;;;;5.60;2.90;;;;;;;;;;4980233;28;20043;-70
2023/09/21 09:18:08;;;;;;;4.72;2.90;;;;;;;;;;4989190;28;20129;-70
2023/09/21 09:20:36;;;;;;;5.40;3.08;;;;;;;;;;4990403;28;20026;-70
2023/09/21 09:23:02;;;;;;;5.22;3.08;;;;;;;;;;4990492;28;20121;-70
2023/09/21 09:25:28;;;;;;;7.38;2.83;;;;;;;;;;4992432;28;20493;-70
2023/09/21 09:27:54;;;;;;;4.45;2.90;;;;;;;;;;4991980;28;20046;-70
2023/09/21 09:30:23;;;;;;;4.40;2.70;;;;;;;;;;4993096;28;20500;-70
2023/09/21 09:32:51;;;;;;;3.92;2.63;;;;;;;;;;4993352;28;20448;-70
2023/09/21 09:35:17;;;;;;;4.18;2.60;;;;;;;;;;4990522;28;20046;-70
2023/09/21 09:37:44;;;;;;;5.22;3.28;;;;;;;;;;4993074;28;20472;-70
2023/09/21 09:40:18;;;;;;;3.72;2.63;;;;;;;;;;4984905;28;20037;-70
2023/09/21 09:42:44;;;;;;;4.70;3.15;;;;;;;;;;4976599;28;20518;-70
2023/09/21 09:45:13;;;;;;;6.22;3.15;;;;;;;;;;4987763;28;20042;-70
2023/09/21 09:47:40;;;;;;;5.50;2.92;;;;;;;;;;4991678;28;20057;-70
2023/09/21 09:50:09;;;;;;;4.45;3.08;;;;;;;;;;4980046;28;20042;-70
2023/09/21 09:52:40;;;;;;;5.25;2.97;;;;;;;;;;4978872;28;20047;-70
2023/09/21 09:55:06;;;;;;;3.92;2.80;;;;;;;;;;4984707;28;20042;-70
2023/09/21 09:57:33;;;;;;;5.72;3.00;;;;;;;;;;4987635;28;20062;-70
2023/09/21 09:59:59;;;;;;;9.60;3.65;;;;;;;;;;4988633;28;20134;-70
2023/09/21 10:02:27;;;;;;;4.53;3.00;;;;;;;;;;4980016;28;20052;-70
2023/09/21 10:04:53;;;;;;;4.72;3.15;;;;;;;;;;4986235;28;20038;-70
2023/09/21 10:07:19;;;;;;;3.95;2.83;;;;;;;;;;4992603;28;20054;-70
2023/09/21 10:09:45;;;;;;;6.25;2.90;;;;;;;;;;4992566;28;20042;-70
2023/09/21 10:12:12;;;;;;;6.78;3.40;;;;;;;;;;4992652;28;20045;-70
2023/09/21 10:14:43;;;;;;;5.30;3.25;;;;;;;;;;4985867;28;20129;-70
2023/09/21 10:17:14;;;;;;;6.93;3.88;;;;;;;;;;4978000;28;20042;-70
2023/09/21 10:19:43;;;;;;;5.50;3.55;;;;;;;;;;4991215;28;20042;-70
2023/09/21 10:22:25;;;;;;;4.28;2.95;;;;;;;;;;4980487;28;20042;-70
2023/09/21 10:24:53;;;;;;;6.63;3.22;;;;;;;;;;4975467;28;20050;-70
2023/09/21 10:27:21;;;;;;;5.50;3.00;;;;;;;;;;4979606;28;20113;-70
2023/09/21 10:29:52;;;;;;;6.80;3.42;;;;;;;;;;4973533;28;20049;-70
2023/09/21 10:32:23;;;;;;;5.15;3.38;;;;;;;;;;4973421;28;20039;-70
2023/09/21 10:34:50;;;;;;;5.32;3.40;;;;;;;;;;4975288;28;20066;-70
2023/09/21 10:37:25;;;;;;;5.55;3.25;;;;;;;;;;4984119;28;20039;-70
2023/09/21 10:39:57;;;;;;;4.63;3.33;;;;;;;;;;4973185;28;20105;-70
2023/09/21 10:42:27;;;;;;;6.28;3.60;;;;;;;;;;4972773;28;20050;-70
2023/09/21 10:44:55;;;;;;;4.90;3.58;;;;;;;;;;4974941;28;20047;-71
2023/09/21 10:47:28;;;;;;;7.50;3.80;;;;;;;;;;4984376;28;20068;-71
2023/09/21 10:49:55;;;;;;;6.47;4.20;;;;;;;;;;4981952;28;20108;-71
2023/09/21 10:52:22;;;;;;;8.40;4.00;;;;;;;;;;4977007;28;20043;-71
2023/09/21 10:54:48;;;;;;;6.13;4.10;;;;;;;;;;4989715;28;20488;-71
2023/09/21 10:57:14;;;;;;;4.57;3.17;;;;;;;;;;4994984;28;20096;-71
2023/09/21 10:59:42;;;;;;;5.13;3.58;;;;;;;;;;4986578;28;20503;-71
2023/09/21 11:02:09;;;;;;;4.53;3.05;;;;;;;;;;4987089;28;20038;-71
2023/09/21 11:04:35;;;;;;;3.85;3.00;;;;;;;;;;4988990;28;20505;-71
2023/09/21 11:07:02;;;;;;;3.75;2.55;;;;;;;;;;4994791;28;20523;-71
2023/09/21 11:09:30;;;;;;;3.17;2.00;;;;;;;;;;4987469;28;20042;-71
2023/09/21 11:11:56;;;;;;;2.92;1.75;;;;;;;;;;4983328;28;20394;-71
2023/09/21 11:14:23;;;;;;;2.95;1.40;;;;;;;;;;4995930;28;20493;-71
2023/09/21 11:16:49;;;;;;;2.25;1.40;;;;;;;;;;4993822;28;20045;-71
2023/09/21 11:19:16;;;;;;;2.10;1.40;;;;;;;;;;4995370;28;20070;-71
2023/09/21 11:21:44;;;;;;;2.58;0.90;;;;;;;;;;4995367;28;20055;-71
2023/09/21 11:24:10;;;;;;;1.52;0.90;;;;;;;;;;4995858;28;20481;-71
2023/09/21 11:26:39;;;;;;;1.50;1.20;;;;;;;;;;4986061;28;20062;-71
2023/09/21 11:29:07;;;;;;;1.67;1.13;;;;;;;;;;4995207;28;20566;-71
2023/09/21 11:31:33;;;;;;;1.88;1.10;;;;;;;;;;4994486;28;20047;-71
2023/09/21 11:34:05;;;;;;;2.60;1.50;;;;;;;;;;4995351;28;20045;-71
2023/09/21 11:36:31;;;;;;;1.73;1.30;;;;;;;;;;4993209;28;20126;-71
2023/09/21 11:38:57;;;;;;;2.03;1.40;;;;;;;;;;4992447;28;20038;-71
2023/09/21 11:41:23;;;;;;;1.42;1.30;;;;;;;;;;4995250;28;20038;-71
2023/09/21 11:43:50;;;;;;;2.53;1.20;;;;;;;;;;4995308;28;20052;-71
2023/09/21 11:46:18;;;;;;;2.05;1.25;;;;;;;;;;4994525;28;20049;-71
2023/09/21 11:48:44;;;;;;;1.60;1.25;;;;;;;;;;4994073;28;20070;-71
2023/09/21 11:51:11;;;;;;;3.70;1.20;;;;;;;;;;4990280;28;20038;-71
2023/09/21 11:53:39;;;;;;;1.50;0.98;;;;;;;;;;4993164;28;20046;-70
2023/09/21 11:56:05;;;;;;;1.40;1.10;;;;;;;;;;4993738;28;20046;-70
2023/09/21 11:58:35;;;;;;;1.40;1.30;;;;;;;;;;4993537;28;20404;-70
2023/09/21 12:03:33;;;;;;;2.47;1.15;;;;;;;;;;4993079;28;19933;-70
2023/09/21 12:06:03;;;;;;;1.98;1.25;;;;;;;;;;4993499;28;20042;-71
2023/09/21 12:08:29;;;;;;;1.55;1.30;;;;;;;;;;4993832;28;20046;-71
2023/09/21 12:10:56;;;;;;;2.28;1.20;;;;;;;;;;4991818;28;20121;-71
2023/09/21 12:13:23;;;;;;;1.50;1.00;;;;;;;;;;4989782;28;20404;-71
2023/09/21 12:15:55;;;;;;;1.98;1.52;;;;;;;;;;4993166;28;20100;-71
2023/09/21 12:18:21;;;;;;;2.75;1.20;;;;;;;;;;4992627;28;20042;-71
2023/09/21 12:20:51;;;;;;;3.13;1.50;;;;;;;;;;4990783;28;20039;-71
2023/09/21 12:23:17;;;;;;;1.88;1.10;;;;;;;;;;4991740;28;20125;-70
2023/09/21 12:25:43;;;;;;;1.58;1.30;;;;;;;;;;4993117;28;20066;-70
2023/09/21 12:28:11;;;;;;;1.88;1.15;;;;;;;;;;4993144;28;20100;-70
2023/09/21 12:30:42;;;;;;;2.67;1.30;;;;;;;;;;4991857;28;20509;-70
2023/09/21 12:33:08;;;;;;;1.42;1.08;;;;;;;;;;4993084;28;20116;-70
2023/09/21 12:35:35;;;;;;;4.22;1.17;;;;;;;;;;4987337;28;20519;-70
2023/09/21 12:38:02;;;;;;;2.05;1.00;;;;;;;;;;4990697;28;20093;-70
2023/09/21 12:40:28;;;;;;;1.25;0.70;;;;;;;;;;4986326;28;20057;-70
2023/09/21 12:42:54;;;;;;;1.48;0.70;;;;;;;;;;4992974;28;20038;-70
2023/09/21 12:45:21;;;;;;;2.35;0.70;;;;;;;;;;4992845;28;20060;-70
2023/09/21 12:47:47;;;;;;;1.15;0.47;;;;;;;;;;4990115;28;20049;-70
2023/09/21 12:50:14;;;;;;;1.25;0.35;;;;;;;;;;4990067;28;20038;-70
2023/09/21 12:52:41;;;;;;;0.73;0.40;;;;;;;;;;4992829;28;20046;-70
2023/09/21 12:55:07;;;;;;;2.15;0.70;;;;;;;;;;4988072;28;20481;-70
2023/09/21 12:57:37;;;;;;;0.82;0.40;;;;;;;;;;4988414;28;20038;-70
2023/09/21 13:00:10;;;;;;;1.40;0.50;;;;;;;;;;4992793;28;20073;-70
2023/09/21 13:02:36;;;;;;;0.50;0.30;;;;;;;;;;4990944;28;20054;-70
2023/09/21 13:05:02;;;;;;;0.80;0.35;;;;;;;;;;4990843;28;20038;-70
2023/09/21 13:07:28;;;;;;;0.95;0.47;;;;;;;;;;4986373;28;20047;-70
2023/09/21 13:09:55;;;;;;;1.63;0.90;;;;;;;;;;4989051;28;20047;-71
2023/09/21 13:12:21;;;;;;;1.23;0.50;;;;;;;;;;4991379;28;20540;-71
2023/09/21 13:14:49;;;;;;;1.20;0.50;;;;;;;;;;4989485;28;20096;-71
2023/09/21 13:17:15;;;;;;;1.08;0.40;;;;;;;;;;4992700;28;20042;-70
2023/09/21 13:19:42;;;;;;;1.48;0.50;;;;;;;;;;4985341;28;20081;-70
2023/09/21 13:22:08;;;;;;;1.13;0.57;;;;;;;;;;4992262;28;20077;-70
2023/09/21 13:24:35;;;;;;;1.73;0.70;;;;;;;;;;4991906;28;20096;-70
2023/09/21 13:27:04;;;;;;;1.80;0.47;;;;;;;;;;4992332;28;20053;-70
2023/09/21 13:29:30;;;;;;;0.95;0.43;;;;;;;;;;4992268;28;20125;-70
2023/09/21 13:31:56;;;;;;;0.65;0.45;;;;;;;;;;4992378;28;20050;-70
2023/09/21 13:34:22;;;;;;;2.15;0.45;;;;;;;;;;4991566;28;20554;-70
2023/09/21 13:36:49;;;;;;;1.25;0.43;;;;;;;;;;4991849;28;20433;-70
2023/09/21 13:39:18;;;;;;;1.02;0.47;;;;;;;;;;4990699;28;20108;-71
2023/09/21 13:41:45;;;;;;;1.67;0.70;;;;;;;;;;4992022;28;20492;-71
2023/09/21 13:44:11;;;;;;;1.08;0.63;;;;;;;;;;4986439;28;20038;-71
2023/09/21 13:46:37;;;;;;;1.50;0.60;;;;;;;;;;4991752;28;20080;-71
2023/09/21 13:49:03;;;;;;;1.65;0.70;;;;;;;;;;4980546;28;20093;-71
2023/09/21 13:51:29;;;;;;;1.10;0.68;;;;;;;;;;4987008;28;20042;-71
2023/09/21 13:53:55;;;;;;;1.60;0.85;;;;;;;;;;4991206;28;20050;-71
2023/09/21 13:56:21;;;;;;;1.00;0.70;;;;;;;;;;4986803;28;20082;-71
2023/09/21 13:58:47;;;;;;;0.60;0.60;;;;;;;;;;4979981;28;20042;-71
2023/09/21 14:01:14;;;;;;;1.35;0.73;;;;;;;;;;4980244;28;20495;-71
2023/09/21 14:03:41;;;;;;;0.98;0.55;;;;;;;;;;4990186;28;20038;-71
2023/09/21 14:06:07;;;;;;;1.58;0.68;;;;;;;;;;4989568;28;20049;-71
2023/09/21 14:08:33;;;;;;;1.23;0.50;;;;;;;;;;4988707;28;20026;-71
2023/09/21 14:10:59;;;;;;;0.68;0.68;;;;;;;;;;4991703;28;20400;-71
2023/09/21 14:13:25;;;;;;;1.35;0.77;;;;;;;;;;4992755;28;20047;-71
2023/09/21 14:15:51;;;;;;;0.57;0.45;;;;;;;;;;5009705;23;20049;-67
2023/09/21 14:18:17;;;;;;;1.52;0.60;;;;;;;;;;5000216;28;20134;-67
2023/09/21 14:20:43;;;;;;;1.02;0.70;;;;;;;;;;4992847;28;20400;-67
2023/09/21 14:23:09;;;;;;;0.95;0.63;;;;;;;;;;4989251;28;20041;-67
2023/09/21 14:25:35;;;;;;;1.65;0.77;;;;;;;;;;4985748;28;20511;-67
2023/09/21 14:28:01;;;;;;;1.10;0.70;;;;;;;;;;4982712;28;20130;-67
2023/09/21 14:30:27;;;;;;;1.48;0.52;;;;;;;;;;4990891;28;20401;-67
2023/09/21 14:32:54;;;;;;;0.80;0.55;;;;;;;;;;4982270;28;20046;-67
2023/09/21 14:35:20;;;;;;;1.02;0.75;;;;;;;;;;4988657;28;20054;-67
2023/09/21 14:37:46;;;;;;;1.58;0.80;;;;;;;;;;4987976;28;20045;-67
2023/09/21 14:40:12;;;;;;;2.25;0.63;;;;;;;;;;4992476;28;20034;-68
2023/09/21 14:42:38;;;;;;;1.42;0.60;;;;;;;;;;4983204;28;20070;-68
2023/09/21 14:45:05;;;;;;;2.17;0.80;;;;;;;;;;4990885;28;20073;-68